Historyczne dane pomiarowe

Dodano dane terminowe – wersja testowa.

Dane z okresu 1951-2019

Wersja bazy: 1.34 [2019-03-16, lista zmian], aktualizacja planowana na 2019-04-15

Dane meteo z obszaru Polski uzyskane na podstawie danych udostępnionych przez Instytut Meteorologii i Gospodarki Wodnej – Państwowy Instytut Badawczy.

 

Wybierz Datę:    

       

TemperaturaWilgotnośćZachmurzenieWiatrCiśnienieWidzialnośćZjawiska
 Data    tng td wb rh cc ccl cl cm ch dir g1 g2 mslp ppp      
1999-07-20 00:00:00 8.7--- 6.4 7.585wxwx2wx--- 805.7 0.0---wx
1999-07-20 01:00:00 8.6--- 6.4 7.586wxwx2wx--- 805.3----wx
1999-07-20 02:00:00 8.5--- 5.6 7.182wxwxwx1wx--- 805.0----wx
1999-07-20 03:00:00 9.3--- 4.6 7.073wxwxwx2wx--- 804.8----wx
1999-07-20 04:00:00 9.4--- 5.5 7.477wxwxwx0wx--- 804.9----wx
1999-07-20 05:00:00 10.2--- 5.0 7.570wxwxwx0wx--- 805.0----wx
1999-07-20 06:00:00 11.8--- 5.8 8.766wxwxwxwx1wx--- 804.9 0.0---wx
1999-07-20 07:00:00 11.3--- 5.5 8.367wxwxwx1wx--- 805.2----wx
1999-07-20 08:00:00 10.9--- 5.3 8.069wxwxwx3wx--- 805.4----wx
1999-07-20 09:00:00 11.3--- 6.2 8.670wxwxwx1wx--- 805.4----wx
1999-07-20 10:00:00 13.0--- 10.8 11.786wxwxwx2wx--- 805.5----wx
1999-07-20 11:00:00 12.9--- 9.9 11.282wxwxwx1wx--- 805.3----wx
1999-07-20 12:00:00 12.4--- 9.7 10.983wxwxwx2wx--- 805.3 0.0---wx
1999-07-20 13:00:00 15.3--- 9.7 12.170wxwxwx2wx--- 805.2----wx
1999-07-20 14:00:00 16.9--- 9.8 12.863wxwxwx1wx--- 805.1----wx
1999-07-20 15:00:00 15.8--- 10.3 12.670wxwxwx1wx--- 804.9----wx
1999-07-20 16:00:00 15.2--- 10.4 12.473wxwxwx1wx--- 804.6----wx
1999-07-20 17:00:00 13.5--- 9.5 11.377wxwxwxwx2wx--- 804.5----wx
1999-07-20 18:00:00 12.9--- 8.2 10.473wxwxwxwx1wx--- 804.5 0.0---wx
1999-07-20 19:00:00 11.1--- 7.6 9.279wxwxwxwx1wx--- 804.6----wx
1999-07-20 20:00:00 10.9--- 7.4 9.078wxwxwxwx1wx--- 805.0----wx
1999-07-20 21:00:00 11.1--- 7.1 9.076wxwxwx4wx--- 804.7----wx
1999-07-20 22:00:00 10.7--- 3.2 7.060wxwxwx4wx--- 804.7----wx
1999-07-20 23:00:00 10.8--- 5.9 8.272wxwxwx5wx--- 804.4----wx

 

Źródłem pochodzenia danych jest Instytut Meteorologii i Gospodarki Wodnej – Państwowy Instytut Badawczy. Dane Instytutu Meteorologii i Gospodarki Wodnej – Państwowego Instytutu Badawczego zostały przetworzone.

Dane źródłowe można odnaleźć na stronie https://dane.imgw.pl